Abbotsford Airport
CYXX : rendu visible

Aérodrome :











RETROUVEZ-NOUS SUR...

 
LOGIN :

S'inscrire | Disclaimer

   EN    FR    IT 

 









Légende :    VFR   VFR Marginal   IFR   IFR Intensif   IFR Très Intensif
Visi : 
Plafond : 
>= 8 km
>= 3000ft
5 à 8 km
1000 à 3000 ft
1500m à 5 km
500 à 1000 ft
800 à 1500m
200 à 500 ft
< 800m
< 200 ft
Symboles :   Orages  Brouillard  Fortes neiges  Fortes précipitations  Vent > 20 kt






- Altitude de l'aérodrome : 195 ft
- Code IATA : YXX


CYXX - Abbotsford

DERNIER METAR :
  • 202100Z 17003KT 150V320 30SM FEW220 09/M00 A3025 RMK CI1 CI TR CONTRAILS SLP248

METARs EXPIRÉS :
  • 202000Z VRB02KT 30SM FEW220 FEW250 08/M00 A3027 RMK CI1CI1 CI TR SLP254
  • 201900Z 03003KT 350V060 30SM FEW220 FEW250 07/M00 A3028 RMK CI1CI1 CI TR CONTRAILS SLP256

TAF TAF CYXX
Valide du 20 à 18h jusqu'au 21 à 18h UTC


201738Z 2018/2118 VRB03KT P6SM FEW240
BECMG 2103/2105 05005KT
FM211200 05005KT P6SM BKN200 RMK NXT FCST BY 210000Z



MET'MAP, la Météo Aéronautique d'un coup d'oeil ! - Copyright ORBIFLY Décembre 2007 - Disclaimer

ORBIFLY MET'MAP TEAM :

Programmation & Développement : Alexandra Zaïnal
Sur une idée originale de : Baudouin d'Aumeries
Assistance à la programmation : Marc-Olivier Méhu
Soutien technique & logistique : Manuel Goepfert

Contact : metmap@orbifly.com




SOURCES & CREDITS :

   NOAA       Earth
Advisory